createdAt,value
2022-10-23T00:03:08.547Z,1006.425
2022-10-23T00:23:07.439Z,1006.402
2022-10-23T00:43:07.136Z,1006.355
2022-10-23T01:03:08.711Z,1006.348
2022-10-23T01:23:07.446Z,1006.267
2022-10-23T01:43:07.356Z,1006.128
2022-10-23T02:03:07.985Z,1006.051
2022-10-23T02:23:07.609Z,1005.805
2022-10-23T02:43:07.370Z,1005.651
2022-10-23T03:03:08.025Z,1005.412
2022-10-23T03:23:07.649Z,1005.308
2022-10-23T03:43:07.535Z,1005.331
2022-10-23T04:03:08.168Z,1005.132
2022-10-23T04:23:08.005Z,1004.965
2022-10-23T04:43:07.375Z,1004.849
2022-10-23T05:03:08.265Z,1004.969
2022-10-23T05:23:08.283Z,1004.464
2022-10-23T05:43:08.260Z,1004.42
2022-10-23T06:03:07.914Z,1004.27
2022-10-23T06:23:07.880Z,1004.159
2022-10-23T06:43:07.637Z,1004.14
2022-10-23T07:03:08.527Z,1004.185
2022-10-23T07:23:07.216Z,1004.053
2022-10-23T07:43:08.126Z,1003.932
2022-10-23T08:03:08.774Z,1003.86
2022-10-23T08:23:07.503Z,1003.792
2022-10-23T08:43:07.557Z,1003.702
2022-10-23T09:03:08.363Z,1003.595
2022-10-23T09:23:07.069Z,1003.307
2022-10-23T09:43:07.925Z,1003.049
2022-10-23T10:03:09.015Z,1003.008
2022-10-23T10:23:07.806Z,1002.911
2022-10-23T10:43:07.686Z,1002.616
2022-10-23T11:03:08.415Z,1002.18
2022-10-23T11:23:07.291Z,1001.924
2022-10-23T11:43:07.227Z,1001.565
2022-10-23T12:03:09.013Z,1001.194
2022-10-23T12:23:07.762Z,1000.985
2022-10-23T12:43:07.671Z,1000.671
2022-10-23T13:03:08.433Z,1000.504
2022-10-23T13:23:07.185Z,1000.055
2022-10-23T13:43:08.097Z,999.638
2022-10-23T14:03:08.966Z,999.393
2022-10-23T14:23:07.812Z,999.153
2022-10-23T14:43:07.775Z,998.991
2022-10-23T15:03:08.547Z,998.533
2022-10-23T15:23:07.397Z,998.425
2022-10-23T15:43:13.411Z,998.353
2022-10-23T16:03:08.189Z,997.748
2022-10-23T16:23:07.954Z,997.822
2022-10-23T16:43:07.861Z,998.34
2022-10-23T17:03:08.818Z,998.767
2022-10-23T17:23:07.775Z,998.722
2022-10-23T17:43:07.618Z,999.219
2022-10-23T18:03:08.444Z,999.93
2022-10-23T18:23:07.183Z,1000.458
2022-10-23T18:43:38.760Z,999.865
2022-10-23T19:03:08.415Z,999.027
2022-10-23T19:23:07.191Z,998.624
2022-10-23T19:43:07.146Z,998.084
2022-10-23T20:03:09.032Z,997.729
2022-10-23T20:23:07.892Z,997.921
2022-10-23T20:43:07.900Z,997.71
2022-10-23T21:03:08.902Z,997.677
2022-10-23T21:23:07.689Z,997.739
2022-10-23T21:43:11.305Z,998.093
2022-10-23T22:03:08.505Z,998.706
2022-10-23T22:23:07.197Z,998.748
2022-10-23T22:43:08.050Z,998.562
2022-10-23T23:03:08.885Z,998.625
2022-10-23T23:23:07.603Z,998.594
2022-10-23T23:43:07.246Z,998.424
